SPHO

Coronel FAP Alfredo Mendivil Duarte Airport

Ayacucho, Peru
SPHO 201710Z 2018/2118 VRB04KT 9999 SCT030 TX24/2019Z TN12/2111Z TEMPO 2022/2101 28010KT SCT035 SCT080
Issued Valid From Valid To
Apr-20 @ 17:10 UTC
(an hour ago)
Apr-20 @ 18:00 UTC
(34 minutes ago)
Apr-21 @ 18:00 UTC
(in 23 hours)
Apr-20 @ 18:00 to Apr-21 @ 18:00
SPHO 201710Z 2018/2118 VRB04KT 9999 SCT030 TX24/2019Z TN12/2111Z
Wind Visibility Clouds
Variable at 4 knots 10,000+ meters
  • Scattered at 3,000' AGL
Temporary Apr-20 @ 22:00 to Apr-21 @ 01:00
TEMPO 2022/2101 28010KT SCT035 SCT080
Wind Clouds
280° at 10 knots
  • Scattered at 3,500' AGL
  • Scattered at 8,000' AGL
SPHO 201710Z 2018/2118 VRB04KT 9999 SCT030 TX24/2019Z TN12/2111Z TEMPO 2022/2101 28010KT SCT035 SCT080
Issued Apr-20 @ 17:10 UTC
(an hour ago)
Valid From Apr-20 @ 18:00 UTC
(34 minutes ago)
Valid To Apr-21 @ 18:00 UTC
(in 23 hours)
Apr-20 @ 18:00 - Apr-21 @ 18:00
Wind Visibility
Variable at 4 knots 10,000+ meters
Clouds
  • Scattered at 3,000' AGL
Temporary Apr-20 @ 22:00 - Apr-21 @ 01:00
Wind
280° at 10 knots
Clouds
  • Scattered at 3,500' AGL
  • Scattered at 8,000' AGL